sensor_id;sensor_type;location;lat;lon;timestamp;temperature;humidity
1351;DHT22;669;50.206;9.998;2022-10-16T00:00:57;14.50;87.90
1351;DHT22;669;50.206;9.998;2022-10-16T00:03:25;14.50;88.10
1351;DHT22;669;50.206;9.998;2022-10-16T00:05:58;14.50;87.90
1351;DHT22;669;50.206;9.998;2022-10-16T00:08:27;14.50;87.90
1351;DHT22;669;50.206;9.998;2022-10-16T00:11:00;14.40;87.80
1351;DHT22;669;50.206;9.998;2022-10-16T00:13:29;14.40;88.60
1351;DHT22;669;50.206;9.998;2022-10-16T00:15:58;14.40;88.40
1351;DHT22;669;50.206;9.998;2022-10-16T00:18:26;14.40;88.60
1351;DHT22;669;50.206;9.998;2022-10-16T00:20:55;14.30;88.30
1351;DHT22;669;50.206;9.998;2022-10-16T00:23:23;14.30;88.70
1351;DHT22;669;50.206;9.998;2022-10-16T00:25:58;14.30;88.90
1351;DHT22;669;50.206;9.998;2022-10-16T00:28:27;14.30;89.20
1351;DHT22;669;50.206;9.998;2022-10-16T00:30:56;14.30;89.40
1351;DHT22;669;50.206;9.998;2022-10-16T00:33:24;14.30;89.70
1351;DHT22;669;50.206;9.998;2022-10-16T00:35:52;14.30;89.70
1351;DHT22;669;50.206;9.998;2022-10-16T00:38:20;14.30;89.40
1351;DHT22;669;50.206;9.998;2022-10-16T00:40:48;14.30;89.50
1351;DHT22;669;50.206;9.998;2022-10-16T00:43:37;14.40;90.00
1351;DHT22;669;50.206;9.998;2022-10-16T00:46:12;14.40;89.90
1351;DHT22;669;50.206;9.998;2022-10-16T00:48:42;14.50;89.80
1351;DHT22;669;50.206;9.998;2022-10-16T00:51:12;14.50;89.40
1351;DHT22;669;50.206;9.998;2022-10-16T00:53:41;14.50;89.40
1351;DHT22;669;50.206;9.998;2022-10-16T00:56:09;14.50;89.60
1351;DHT22;669;50.206;9.998;2022-10-16T00:58:38;14.50;89.40
1351;DHT22;669;50.206;9.998;2022-10-16T01:01:06;14.60;89.80
1351;DHT22;669;50.206;9.998;2022-10-16T01:03:36;14.60;90.00
1351;DHT22;669;50.206;9.998;2022-10-16T01:06:21;14.60;89.90
1351;DHT22;669;50.206;9.998;2022-10-16T01:09:03;14.70;89.90
1351;DHT22;669;50.206;9.998;2022-10-16T01:11:35;14.70;90.00
1351;DHT22;669;50.206;9.998;2022-10-16T01:14:17;14.70;89.80
1351;DHT22;669;50.206;9.998;2022-10-16T01:16:50;14.80;89.90
1351;DHT22;669;50.206;9.998;2022-10-16T01:19:26;14.80;89.60
1351;DHT22;669;50.206;9.998;2022-10-16T01:22:01;14.80;89.70
1351;DHT22;669;50.206;9.998;2022-10-16T01:24:34;14.70;89.60
1351;DHT22;669;50.206;9.998;2022-10-16T01:27:10;14.70;90.00
1351;DHT22;669;50.206;9.998;2022-10-16T01:29:44;14.70;90.30
1351;DHT22;669;50.206;9.998;2022-10-16T01:32:17;14.70;90.70
1351;DHT22;669;50.206;9.998;2022-10-16T01:34:49;14.70;90.50
1351;DHT22;669;50.206;9.998;2022-10-16T01:37:26;14.70;90.60
1351;DHT22;669;50.206;9.998;2022-10-16T01:39:58;14.80;90.60
1351;DHT22;669;50.206;9.998;2022-10-16T01:42:34;14.80;90.80
1351;DHT22;669;50.206;9.998;2022-10-16T01:45:05;14.80;90.90
1351;DHT22;669;50.206;9.998;2022-10-16T01:47:35;14.80;90.90
1351;DHT22;669;50.206;9.998;2022-10-16T01:50:04;14.80;91.00
1351;DHT22;669;50.206;9.998;2022-10-16T01:52:35;14.80;91.20
1351;DHT22;669;50.206;9.998;2022-10-16T01:55:07;14.80;91.20
1351;DHT22;669;50.206;9.998;2022-10-16T01:57:39;14.80;91.20
1351;DHT22;669;50.206;9.998;2022-10-16T02:00:11;14.80;91.20
1351;DHT22;669;50.206;9.998;2022-10-16T02:02:42;14.80;91.20
1351;DHT22;669;50.206;9.998;2022-10-16T02:05:14;14.90;91.30
1351;DHT22;669;50.206;9.998;2022-10-16T02:07:43;14.90;91.10
1351;DHT22;669;50.206;9.998;2022-10-16T02:10:11;14.90;90.80
1351;DHT22;669;50.206;9.998;2022-10-16T02:12:44;14.90;90.60
1351;DHT22;669;50.206;9.998;2022-10-16T02:15:13;14.90;90.50
1351;DHT22;669;50.206;9.998;2022-10-16T02:17:41;14.90;90.50
1351;DHT22;669;50.206;9.998;2022-10-16T02:20:10;14.90;90.50
1351;DHT22;669;50.206;9.998;2022-10-16T02:22:40;14.80;90.30
1351;DHT22;669;50.206;9.998;2022-10-16T02:25:11;14.80;90.50
1351;DHT22;669;50.206;9.998;2022-10-16T02:27:50;14.80;90.20
1351;DHT22;669;50.206;9.998;2022-10-16T02:30:25;14.80;90.00
1351;DHT22;669;50.206;9.998;2022-10-16T02:32:56;14.70;89.90
1351;DHT22;669;50.206;9.998;2022-10-16T02:35:26;14.70;89.90
1351;DHT22;669;50.206;9.998;2022-10-16T02:37:55;14.70;89.70
1351;DHT22;669;50.206;9.998;2022-10-16T02:40:25;14.70;90.00
1351;DHT22;669;50.206;9.998;2022-10-16T02:42:55;14.70;90.00
1351;DHT22;669;50.206;9.998;2022-10-16T02:45:23;14.60;90.10
1351;DHT22;669;50.206;9.998;2022-10-16T02:47:52;14.60;90.10
1351;DHT22;669;50.206;9.998;2022-10-16T02:50:20;14.60;90.20
1351;DHT22;669;50.206;9.998;2022-10-16T02:52:48;14.60;90.40
1351;DHT22;669;50.206;9.998;2022-10-16T02:55:17;14.60;90.40
1351;DHT22;669;50.206;9.998;2022-10-16T02:57:45;14.60;90.30
1351;DHT22;669;50.206;9.998;2022-10-16T03:00:16;14.60;90.30
1351;DHT22;669;50.206;9.998;2022-10-16T03:02:44;14.60;90.20
1351;DHT22;669;50.206;9.998;2022-10-16T03:05:13;14.60;90.20
1351;DHT22;669;50.206;9.998;2022-10-16T03:07:41;14.60;90.30
1351;DHT22;669;50.206;9.998;2022-10-16T03:10:09;14.50;90.50
1351;DHT22;669;50.206;9.998;2022-10-16T03:12:37;14.50;90.60
1351;DHT22;669;50.206;9.998;2022-10-16T03:15:06;14.60;90.60
1351;DHT22;669;50.206;9.998;2022-10-16T03:17:36;14.60;90.60
1351;DHT22;669;50.206;9.998;2022-10-16T03:20:04;14.60;90.70
1351;DHT22;669;50.206;9.998;2022-10-16T03:22:32;14.60;90.50
1351;DHT22;669;50.206;9.998;2022-10-16T03:25:00;14.60;90.50
1351;DHT22;669;50.206;9.998;2022-10-16T03:27:28;14.60;90.70
1351;DHT22;669;50.206;9.998;2022-10-16T03:29:56;14.60;90.60
1351;DHT22;669;50.206;9.998;2022-10-16T03:32:24;14.60;90.60
1351;DHT22;669;50.206;9.998;2022-10-16T03:34:54;14.60;90.70
1351;DHT22;669;50.206;9.998;2022-10-16T03:37:23;14.60;90.80
1351;DHT22;669;50.206;9.998;2022-10-16T03:39:51;14.60;90.90
1351;DHT22;669;50.206;9.998;2022-10-16T03:42:19;14.60;90.90
1351;DHT22;669;50.206;9.998;2022-10-16T03:44:47;14.50;90.90
1351;DHT22;669;50.206;9.998;2022-10-16T03:47:15;14.50;90.90
1351;DHT22;669;50.206;9.998;2022-10-16T03:49:47;14.60;91.00
1351;DHT22;669;50.206;9.998;2022-10-16T03:52:17;14.60;90.60
1351;DHT22;669;50.206;9.998;2022-10-16T03:54:49;14.60;90.40
1351;DHT22;669;50.206;9.998;2022-10-16T03:57:18;14.60;90.30
1351;DHT22;669;50.206;9.998;2022-10-16T03:59:47;14.60;90.30
1351;DHT22;669;50.206;9.998;2022-10-16T04:02:15;14.60;90.10
1351;DHT22;669;50.206;9.998;2022-10-16T04:04:43;14.60;90.10
1351;DHT22;669;50.206;9.998;2022-10-16T04:07:10;14.60;90.20
1351;DHT22;669;50.206;9.998;2022-10-16T04:09:40;14.50;90.20
1351;DHT22;669;50.206;9.998;2022-10-16T04:12:08;14.50;90.20
1351;DHT22;669;50.206;9.998;2022-10-16T04:14:36;14.50;90.20
1351;DHT22;669;50.206;9.998;2022-10-16T04:17:04;14.50;90.20
1351;DHT22;669;50.206;9.998;2022-10-16T04:19:32;14.50;90.20
1351;DHT22;669;50.206;9.998;2022-10-16T04:22:00;14.50;90.20
1351;DHT22;669;50.206;9.998;2022-10-16T04:24:27;14.50;90.20
1351;DHT22;669;50.206;9.998;2022-10-16T04:26:57;14.50;90.10
1351;DHT22;669;50.206;9.998;2022-10-16T04:29:26;14.50;90.10
1351;DHT22;669;50.206;9.998;2022-10-16T04:31:54;14.40;90.10
1351;DHT22;669;50.206;9.998;2022-10-16T04:34:22;14.40;90.30
1351;DHT22;669;50.206;9.998;2022-10-16T04:36:49;14.40;90.40
1351;DHT22;669;50.206;9.998;2022-10-16T04:39:18;14.40;90.50
1351;DHT22;669;50.206;9.998;2022-10-16T04:41:46;14.40;90.60
1351;DHT22;669;50.206;9.998;2022-10-16T04:44:15;14.40;90.60
1351;DHT22;669;50.206;9.998;2022-10-16T04:46:43;14.30;90.70
1351;DHT22;669;50.206;9.998;2022-10-16T04:49:11;14.30;90.80
1351;DHT22;669;50.206;9.998;2022-10-16T04:51:39;14.40;90.90
1351;DHT22;669;50.206;9.998;2022-10-16T04:54:07;14.30;91.00
1351;DHT22;669;50.206;9.998;2022-10-16T04:56:36;14.30;91.00
1351;DHT22;669;50.206;9.998;2022-10-16T04:59:14;14.30;91.00
1351;DHT22;669;50.206;9.998;2022-10-16T05:01:43;14.30;91.00
1351;DHT22;669;50.206;9.998;2022-10-16T05:04:11;14.30;91.00
1351;DHT22;669;50.206;9.998;2022-10-16T05:06:39;14.30;91.00
1351;DHT22;669;50.206;9.998;2022-10-16T05:09:07;14.30;91.00
1351;DHT22;669;50.206;9.998;2022-10-16T05:11:35;14.30;91.10
1351;DHT22;669;50.206;9.998;2022-10-16T05:14:03;14.30;91.20
1351;DHT22;669;50.206;9.998;2022-10-16T05:16:33;14.30;91.30
1351;DHT22;669;50.206;9.998;2022-10-16T05:19:01;14.30;91.20
1351;DHT22;669;50.206;9.998;2022-10-16T05:21:48;14.30;91.30
1351;DHT22;669;50.206;9.998;2022-10-16T05:24:16;14.30;91.20
1351;DHT22;669;50.206;9.998;2022-10-16T05:26:44;14.30;91.30
1351;DHT22;669;50.206;9.998;2022-10-16T05:29:12;14.30;91.30
1351;DHT22;669;50.206;9.998;2022-10-16T05:31:41;14.30;91.30
1351;DHT22;669;50.206;9.998;2022-10-16T05:34:09;14.30;91.40
1351;DHT22;669;50.206;9.998;2022-10-16T05:36:37;14.30;91.40
1351;DHT22;669;50.206;9.998;2022-10-16T05:39:05;14.30;91.40
1351;DHT22;669;50.206;9.998;2022-10-16T05:41:33;14.30;91.40
1351;DHT22;669;50.206;9.998;2022-10-16T05:44:04;14.30;91.40
1351;DHT22;669;50.206;9.998;2022-10-16T05:46:32;14.30;91.50
1351;DHT22;669;50.206;9.998;2022-10-16T05:49:01;14.30;91.50
1351;DHT22;669;50.206;9.998;2022-10-16T05:51:29;14.30;91.60
1351;DHT22;669;50.206;9.998;2022-10-16T05:53:57;14.30;91.60
1351;DHT22;669;50.206;9.998;2022-10-16T05:56:25;14.30;91.60
1351;DHT22;669;50.206;9.998;2022-10-16T05:58:53;14.40;91.70
1351;DHT22;669;50.206;9.998;2022-10-16T06:01:21;14.40;91.70
1351;DHT22;669;50.206;9.998;2022-10-16T06:03:51;14.40;91.70
1351;DHT22;669;50.206;9.998;2022-10-16T06:06:23;14.40;91.80
1351;DHT22;669;50.206;9.998;2022-10-16T06:08:53;14.40;91.70
1351;DHT22;669;50.206;9.998;2022-10-16T06:11:23;14.40;91.70
1351;DHT22;669;50.206;9.998;2022-10-16T06:13:53;14.40;91.80
1351;DHT22;669;50.206;9.998;2022-10-16T06:16:21;14.40;91.80
1351;DHT22;669;50.206;9.998;2022-10-16T06:18:50;14.40;91.80
1351;DHT22;669;50.206;9.998;2022-10-16T06:21:22;14.40;91.80
1351;DHT22;669;50.206;9.998;2022-10-16T06:23:51;14.40;91.80
1351;DHT22;669;50.206;9.998;2022-10-16T06:26:21;14.40;91.80
1351;DHT22;669;50.206;9.998;2022-10-16T06:28:49;14.40;91.80
1351;DHT22;669;50.206;9.998;2022-10-16T06:31:17;14.40;91.80
1351;DHT22;669;50.206;9.998;2022-10-16T06:33:45;14.40;91.80
1351;DHT22;669;50.206;9.998;2022-10-16T06:36:17;14.40;91.90
1351;DHT22;669;50.206;9.998;2022-10-16T06:38:47;14.40;91.90
1351;DHT22;669;50.206;9.998;2022-10-16T06:41:16;14.40;91.90
1351;DHT22;669;50.206;9.998;2022-10-16T06:43:45;14.40;91.90
1351;DHT22;669;50.206;9.998;2022-10-16T06:46:15;14.40;91.90
1351;DHT22;669;50.206;9.998;2022-10-16T06:48:44;14.50;92.00
1351;DHT22;669;50.206;9.998;2022-10-16T06:51:13;14.50;92.00
1351;DHT22;669;50.206;9.998;2022-10-16T06:53:43;14.50;92.00
1351;DHT22;669;50.206;9.998;2022-10-16T06:56:31;14.50;92.00
1351;DHT22;669;50.206;9.998;2022-10-16T06:58:59;14.50;92.00
1351;DHT22;669;50.206;9.998;2022-10-16T07:01:28;14.50;92.00
1351;DHT22;669;50.206;9.998;2022-10-16T07:03:56;14.50;92.00
1351;DHT22;669;50.206;9.998;2022-10-16T07:06:25;14.50;92.00
1351;DHT22;669;50.206;9.998;2022-10-16T07:08:54;14.60;92.10
1351;DHT22;669;50.206;9.998;2022-10-16T07:11:23;14.60;92.00
1351;DHT22;669;50.206;9.998;2022-10-16T07:13:53;14.60;92.10
1351;DHT22;669;50.206;9.998;2022-10-16T07:16:23;14.60;92.00
1351;DHT22;669;50.206;9.998;2022-10-16T07:18:53;14.60;92.10
1351;DHT22;669;50.206;9.998;2022-10-16T07:21:26;14.60;92.00
1351;DHT22;669;50.206;9.998;2022-10-16T07:23:56;14.60;92.10
1351;DHT22;669;50.206;9.998;2022-10-16T07:26:26;14.70;92.20
1351;DHT22;669;50.206;9.998;2022-10-16T07:28:56;14.70;92.40
1351;DHT22;669;50.206;9.998;2022-10-16T07:31:25;14.70;92.10
1351;DHT22;669;50.206;9.998;2022-10-16T07:33:53;14.80;92.20
1351;DHT22;669;50.206;9.998;2022-10-16T07:36:21;14.80;92.20
1351;DHT22;669;50.206;9.998;2022-10-16T07:38:49;14.90;92.20
1351;DHT22;669;50.206;9.998;2022-10-16T07:41:22;14.90;92.20
1351;DHT22;669;50.206;9.998;2022-10-16T07:43:52;15.00;92.10
1351;DHT22;669;50.206;9.998;2022-10-16T07:46:22;15.00;92.20
1351;DHT22;669;50.206;9.998;2022-10-16T07:48:51;15.10;92.20
1351;DHT22;669;50.206;9.998;2022-10-16T07:51:21;15.10;92.20
1351;DHT22;669;50.206;9.998;2022-10-16T07:53:49;15.20;92.10
1351;DHT22;669;50.206;9.998;2022-10-16T07:56:18;15.30;92.10
1351;DHT22;669;50.206;9.998;2022-10-16T07:58:47;15.40;92.20
1351;DHT22;669;50.206;9.998;2022-10-16T08:01:17;15.50;92.10
1351;DHT22;669;50.206;9.998;2022-10-16T08:03:47;15.50;91.80
1351;DHT22;669;50.206;9.998;2022-10-16T08:06:17;15.60;91.60
1351;DHT22;669;50.206;9.998;2022-10-16T08:08:50;15.60;91.50
1351;DHT22;669;50.206;9.998;2022-10-16T08:11:19;15.70;91.40
1351;DHT22;669;50.206;9.998;2022-10-16T08:13:47;15.70;91.00
1351;DHT22;669;50.206;9.998;2022-10-16T08:16:15;15.80;91.00
1351;DHT22;669;50.206;9.998;2022-10-16T08:18:43;16.00;90.80
1351;DHT22;669;50.206;9.998;2022-10-16T08:21:15;16.00;90.70
1351;DHT22;669;50.206;9.998;2022-10-16T08:23:47;16.00;91.00
1351;DHT22;669;50.206;9.998;2022-10-16T08:26:22;16.10;90.80
1351;DHT22;669;50.206;9.998;2022-10-16T08:28:50;16.30;90.00
1351;DHT22;669;50.206;9.998;2022-10-16T08:31:19;16.30;88.60
1351;DHT22;669;50.206;9.998;2022-10-16T08:33:47;16.40;88.50
1351;DHT22;669;50.206;9.998;2022-10-16T08:36:17;16.50;88.60
1351;DHT22;669;50.206;9.998;2022-10-16T08:38:47;16.50;87.60
1351;DHT22;669;50.206;9.998;2022-10-16T08:44:49;16.70;87.30
1351;DHT22;669;50.206;9.998;2022-10-16T08:47:24;16.70;85.30
1351;DHT22;669;50.206;9.998;2022-10-16T08:49:56;16.70;84.80
1351;DHT22;669;50.206;9.998;2022-10-16T08:52:29;16.70;84.50
1351;DHT22;669;50.206;9.998;2022-10-16T08:54:58;16.80;82.90
1351;DHT22;669;50.206;9.998;2022-10-16T08:57:26;16.80;82.90
1351;DHT22;669;50.206;9.998;2022-10-16T08:59:59;16.80;83.10
1351;DHT22;669;50.206;9.998;2022-10-16T09:02:32;16.80;82.80
1351;DHT22;669;50.206;9.998;2022-10-16T09:05:23;16.80;82.50
1351;DHT22;669;50.206;9.998;2022-10-16T09:08:03;16.70;83.00
1351;DHT22;669;50.206;9.998;2022-10-16T09:10:44;16.60;83.80
1351;DHT22;669;50.206;9.998;2022-10-16T09:13:20;16.50;84.30
1351;DHT22;669;50.206;9.998;2022-10-16T09:15:58;16.40;85.00
1351;DHT22;669;50.206;9.998;2022-10-16T09:18:31;16.30;85.10
1351;DHT22;669;50.206;9.998;2022-10-16T09:21:05;16.30;85.70
1351;DHT22;669;50.206;9.998;2022-10-16T09:23:36;16.20;86.60
1351;DHT22;669;50.206;9.998;2022-10-16T09:26:10;16.10;87.50
1351;DHT22;669;50.206;9.998;2022-10-16T09:28:39;16.10;87.60
1351;DHT22;669;50.206;9.998;2022-10-16T09:31:13;16.10;87.80
1351;DHT22;669;50.206;9.998;2022-10-16T09:33:44;16.10;88.20
1351;DHT22;669;50.206;9.998;2022-10-16T09:36:13;16.00;88.80
1351;DHT22;669;50.206;9.998;2022-10-16T09:38:43;16.00;89.20
1351;DHT22;669;50.206;9.998;2022-10-16T09:41:16;16.00;89.80
1351;DHT22;669;50.206;9.998;2022-10-16T09:43:49;16.00;89.40
1351;DHT22;669;50.206;9.998;2022-10-16T09:46:26;16.00;89.40
1351;DHT22;669;50.206;9.998;2022-10-16T09:48:56;16.00;89.40
1351;DHT22;669;50.206;9.998;2022-10-16T09:51:27;16.00;89.40
1351;DHT22;669;50.206;9.998;2022-10-16T09:53:58;16.10;89.40
1351;DHT22;669;50.206;9.998;2022-10-16T09:56:28;16.00;89.20
1351;DHT22;669;50.206;9.998;2022-10-16T09:58:58;15.90;89.30
1351;DHT22;669;50.206;9.998;2022-10-16T10:01:30;15.90;90.10
1351;DHT22;669;50.206;9.998;2022-10-16T10:03:59;15.90;90.30
1351;DHT22;669;50.206;9.998;2022-10-16T10:06:30;15.80;90.50
1351;DHT22;669;50.206;9.998;2022-10-16T10:09:05;15.80;90.90
1351;DHT22;669;50.206;9.998;2022-10-16T10:11:49;15.70;91.00
1351;DHT22;669;50.206;9.998;2022-10-16T10:14:20;15.70;91.30
1351;DHT22;669;50.206;9.998;2022-10-16T10:16:50;15.80;91.70
1351;DHT22;669;50.206;9.998;2022-10-16T10:19:21;15.80;91.70
1351;DHT22;669;50.206;9.998;2022-10-16T10:21:52;15.80;91.70
1351;DHT22;669;50.206;9.998;2022-10-16T10:24:21;16.00;91.80
1351;DHT22;669;50.206;9.998;2022-10-16T10:26:54;15.90;91.90
1351;DHT22;669;50.206;9.998;2022-10-16T10:29:35;16.00;92.10
1351;DHT22;669;50.206;9.998;2022-10-16T10:32:17;16.00;92.10
1351;DHT22;669;50.206;9.998;2022-10-16T10:34:57;16.10;92.00
1351;DHT22;669;50.206;9.998;2022-10-16T10:37:39;16.10;91.80
1351;DHT22;669;50.206;9.998;2022-10-16T10:40:22;16.20;91.90
1351;DHT22;669;50.206;9.998;2022-10-16T10:42:54;16.30;91.60
1351;DHT22;669;50.206;9.998;2022-10-16T10:45:27;16.40;91.70
1351;DHT22;669;50.206;9.998;2022-10-16T10:48:08;16.40;91.10
1351;DHT22;669;50.206;9.998;2022-10-16T10:50:44;16.50;91.20
1351;DHT22;669;50.206;9.998;2022-10-16T10:53:24;16.70;91.10
1351;DHT22;669;50.206;9.998;2022-10-16T10:56:02;16.90;90.50
1351;DHT22;669;50.206;9.998;2022-10-16T10:58:55;17.00;90.50
1351;DHT22;669;50.206;9.998;2022-10-16T11:01:33;17.10;90.70
1351;DHT22;669;50.206;9.998;2022-10-16T11:07:04;17.40;84.60
1351;DHT22;669;50.206;9.998;2022-10-16T11:09:36;17.40;83.10
1351;DHT22;669;50.206;9.998;2022-10-16T11:12:10;17.70;82.50
1351;DHT22;669;50.206;9.998;2022-10-16T11:14:44;17.80;82.20
1351;DHT22;669;50.206;9.998;2022-10-16T11:17:16;18.00;79.70
1351;DHT22;669;50.206;9.998;2022-10-16T11:19:49;18.00;79.10
1351;DHT22;669;50.206;9.998;2022-10-16T11:22:20;18.00;77.80
1351;DHT22;669;50.206;9.998;2022-10-16T11:24:54;18.00;76.10
1351;DHT22;669;50.206;9.998;2022-10-16T11:27:31;18.00;74.80
1351;DHT22;669;50.206;9.998;2022-10-16T11:30:03;17.80;76.10
1351;DHT22;669;50.206;9.998;2022-10-16T11:32:38;17.80;77.20
1351;DHT22;669;50.206;9.998;2022-10-16T11:35:14;17.90;78.10
1351;DHT22;669;50.206;9.998;2022-10-16T11:37:46;18.30;77.30
1351;DHT22;669;50.206;9.998;2022-10-16T11:40:21;18.80;75.80
1351;DHT22;669;50.206;9.998;2022-10-16T11:42:57;18.90;71.60
1351;DHT22;669;50.206;9.998;2022-10-16T11:45:33;18.90;69.60
1351;DHT22;669;50.206;9.998;2022-10-16T11:48:08;18.90;70.10
1351;DHT22;669;50.206;9.998;2022-10-16T11:50:45;18.80;70.70
1351;DHT22;669;50.206;9.998;2022-10-16T11:53:23;18.60;71.60
1351;DHT22;669;50.206;9.998;2022-10-16T11:55:52;18.70;70.70
1351;DHT22;669;50.206;9.998;2022-10-16T11:58:25;18.60;71.40
1351;DHT22;669;50.206;9.998;2022-10-16T12:01:00;18.70;70.70
1351;DHT22;669;50.206;9.998;2022-10-16T12:03:34;18.80;70.10
1351;DHT22;669;50.206;9.998;2022-10-16T12:06:13;18.80;69.80
1351;DHT22;669;50.206;9.998;2022-10-16T12:08:45;18.80;68.00
1351;DHT22;669;50.206;9.998;2022-10-16T12:11:34;18.90;68.70
1351;DHT22;669;50.206;9.998;2022-10-16T12:14:33;18.90;69.10
1351;DHT22;669;50.206;9.998;2022-10-16T12:17:25;18.80;69.70
1351;DHT22;669;50.206;9.998;2022-10-16T12:20:01;18.70;70.50
1351;DHT22;669;50.206;9.998;2022-10-16T12:22:47;18.50;71.60
1351;DHT22;669;50.206;9.998;2022-10-16T12:25:21;18.40;71.60
1351;DHT22;669;50.206;9.998;2022-10-16T12:28:01;18.40;72.50
1351;DHT22;669;50.206;9.998;2022-10-16T12:30:33;18.30;72.90
1351;DHT22;669;50.206;9.998;2022-10-16T12:33:04;18.40;72.90
1351;DHT22;669;50.206;9.998;2022-10-16T12:35:34;18.30;72.80
1351;DHT22;669;50.206;9.998;2022-10-16T12:38:16;18.30;71.40
1351;DHT22;669;50.206;9.998;2022-10-16T12:40:47;18.30;71.60
1351;DHT22;669;50.206;9.998;2022-10-16T12:43:28;18.40;72.20
1351;DHT22;669;50.206;9.998;2022-10-16T12:46:18;18.60;72.70
1351;DHT22;669;50.206;9.998;2022-10-16T12:48:48;18.90;73.60
1351;DHT22;669;50.206;9.998;2022-10-16T12:51:35;19.20;71.80
1351;DHT22;669;50.206;9.998;2022-10-16T12:54:10;19.60;70.40
1351;DHT22;669;50.206;9.998;2022-10-16T12:56:47;20.10;64.50
1351;DHT22;669;50.206;9.998;2022-10-16T12:59:25;20.50;63.90
1351;DHT22;669;50.206;9.998;2022-10-16T13:02:20;20.70;62.60
1351;DHT22;669;50.206;9.998;2022-10-16T13:05:01;20.80;61.70
1351;DHT22;669;50.206;9.998;2022-10-16T13:07:44;21.00;59.00
1351;DHT22;669;50.206;9.998;2022-10-16T13:10:23;21.10;59.20
1351;DHT22;669;50.206;9.998;2022-10-16T13:16:02;21.00;58.60
1351;DHT22;669;50.206;9.998;2022-10-16T13:18:43;20.90;59.00
1351;DHT22;669;50.206;9.998;2022-10-16T13:21:29;20.80;59.40
1351;DHT22;669;50.206;9.998;2022-10-16T13:24:04;20.70;59.70
1351;DHT22;669;50.206;9.998;2022-10-16T13:26:40;20.80;61.10
1351;DHT22;669;50.206;9.998;2022-10-16T13:29:12;20.80;61.40
1351;DHT22;669;50.206;9.998;2022-10-16T13:31:42;20.80;60.80
1351;DHT22;669;50.206;9.998;2022-10-16T13:34:15;20.90;60.10
1351;DHT22;669;50.206;9.998;2022-10-16T13:36:46;21.20;59.10
1351;DHT22;669;50.206;9.998;2022-10-16T13:39:22;21.30;58.30
1351;DHT22;669;50.206;9.998;2022-10-16T13:42:02;21.30;59.30
1351;DHT22;669;50.206;9.998;2022-10-16T13:44:38;21.20;59.50
1351;DHT22;669;50.206;9.998;2022-10-16T13:47:16;21.20;58.70
1351;DHT22;669;50.206;9.998;2022-10-16T13:49:46;21.10;58.00
1351;DHT22;669;50.206;9.998;2022-10-16T13:52:18;20.90;59.00
1351;DHT22;669;50.206;9.998;2022-10-16T13:54:47;20.80;58.80
1351;DHT22;669;50.206;9.998;2022-10-16T13:57:16;20.80;59.80
1351;DHT22;669;50.206;9.998;2022-10-16T13:59:59;20.70;59.70
1351;DHT22;669;50.206;9.998;2022-10-16T14:02:30;20.70;60.70
1351;DHT22;669;50.206;9.998;2022-10-16T14:05:04;20.70;61.80
1351;DHT22;669;50.206;9.998;2022-10-16T14:07:35;20.70;60.40
1351;DHT22;669;50.206;9.998;2022-10-16T14:10:06;20.70;60.80
1351;DHT22;669;50.206;9.998;2022-10-16T14:12:34;20.70;60.50
1351;DHT22;669;50.206;9.998;2022-10-16T14:15:03;20.80;61.40
1351;DHT22;669;50.206;9.998;2022-10-16T14:17:33;20.90;61.00
1351;DHT22;669;50.206;9.998;2022-10-16T14:20:05;20.90;59.90
1351;DHT22;669;50.206;9.998;2022-10-16T14:22:41;20.80;59.80
1351;DHT22;669;50.206;9.998;2022-10-16T14:25:24;20.60;60.80
1351;DHT22;669;50.206;9.998;2022-10-16T14:27:58;20.30;61.70
1351;DHT22;669;50.206;9.998;2022-10-16T14:30:28;20.10;62.60
1351;DHT22;669;50.206;9.998;2022-10-16T14:32:58;19.90;63.80
1351;DHT22;669;50.206;9.998;2022-10-16T14:35:30;19.80;64.70
1351;DHT22;669;50.206;9.998;2022-10-16T14:38:00;19.80;65.30
1351;DHT22;669;50.206;9.998;2022-10-16T14:40:30;19.60;65.90
1351;DHT22;669;50.206;9.998;2022-10-16T14:42:59;19.50;66.50
1351;DHT22;669;50.206;9.998;2022-10-16T14:45:30;19.50;66.60
1351;DHT22;669;50.206;9.998;2022-10-16T14:48:01;19.30;67.90
1351;DHT22;669;50.206;9.998;2022-10-16T14:50:31;19.30;69.00
1351;DHT22;669;50.206;9.998;2022-10-16T14:52:59;19.20;69.60
1351;DHT22;669;50.206;9.998;2022-10-16T14:55:27;19.10;70.80
1351;DHT22;669;50.206;9.998;2022-10-16T14:57:55;19.00;71.90
1351;DHT22;669;50.206;9.998;2022-10-16T15:00:27;19.00;72.20
1351;DHT22;669;50.206;9.998;2022-10-16T15:02:55;19.00;73.10
1351;DHT22;669;50.206;9.998;2022-10-16T15:05:24;18.90;73.00
1351;DHT22;669;50.206;9.998;2022-10-16T15:07:54;19.00;73.90
1351;DHT22;669;50.206;9.998;2022-10-16T15:10:24;19.00;73.80
1351;DHT22;669;50.206;9.998;2022-10-16T15:12:52;19.00;73.40
1351;DHT22;669;50.206;9.998;2022-10-16T15:15:35;19.00;72.90
1351;DHT22;669;50.206;9.998;2022-10-16T15:18:04;18.90;73.00
1351;DHT22;669;50.206;9.998;2022-10-16T15:20:34;18.90;74.20
1351;DHT22;669;50.206;9.998;2022-10-16T15:23:06;18.80;74.80
1351;DHT22;669;50.206;9.998;2022-10-16T15:25:37;18.70;75.50
1351;DHT22;669;50.206;9.998;2022-10-16T15:28:07;18.60;76.10
1351;DHT22;669;50.206;9.998;2022-10-16T15:30:36;18.50;77.00
1351;DHT22;669;50.206;9.998;2022-10-16T15:33:05;18.40;77.40
1351;DHT22;669;50.206;9.998;2022-10-16T15:35:37;18.30;78.30
1351;DHT22;669;50.206;9.998;2022-10-16T15:38:07;18.20;79.20
1351;DHT22;669;50.206;9.998;2022-10-16T15:40:35;18.10;79.90
1351;DHT22;669;50.206;9.998;2022-10-16T15:43:03;18.10;80.70
1351;DHT22;669;50.206;9.998;2022-10-16T15:45:31;18.00;81.40
1351;DHT22;669;50.206;9.998;2022-10-16T15:47:59;17.90;82.30
1351;DHT22;669;50.206;9.998;2022-10-16T15:50:27;17.90;83.20
1351;DHT22;669;50.206;9.998;2022-10-16T15:52:55;17.80;83.60
1351;DHT22;669;50.206;9.998;2022-10-16T15:55:25;17.80;84.00
1351;DHT22;669;50.206;9.998;2022-10-16T15:57:52;17.70;84.30
1351;DHT22;669;50.206;9.998;2022-10-16T16:00:20;17.60;85.30
1351;DHT22;669;50.206;9.998;2022-10-16T16:02:53;17.60;85.80
1351;DHT22;669;50.206;9.998;2022-10-16T16:05:22;17.50;86.10
1351;DHT22;669;50.206;9.998;2022-10-16T16:07:50;17.40;86.10
1351;DHT22;669;50.206;9.998;2022-10-16T16:10:19;17.40;86.70
1351;DHT22;669;50.206;9.998;2022-10-16T16:12:49;17.30;86.70
1351;DHT22;669;50.206;9.998;2022-10-16T16:15:20;17.30;87.30
1351;DHT22;669;50.206;9.998;2022-10-16T16:17:48;17.20;87.80
1351;DHT22;669;50.206;9.998;2022-10-16T16:20:16;17.20;88.20
1351;DHT22;669;50.206;9.998;2022-10-16T16:22:44;17.10;88.60
1351;DHT22;669;50.206;9.998;2022-10-16T16:25:12;17.10;88.90
1351;DHT22;669;50.206;9.998;2022-10-16T16:27:40;17.00;89.10
1351;DHT22;669;50.206;9.998;2022-10-16T16:30:11;17.00;89.40
1351;DHT22;669;50.206;9.998;2022-10-16T16:32:45;16.90;89.50
1351;DHT22;669;50.206;9.998;2022-10-16T16:35:13;16.90;88.70
1351;DHT22;669;50.206;9.998;2022-10-16T16:37:41;16.80;89.90
1351;DHT22;669;50.206;9.998;2022-10-16T16:40:10;16.70;90.00
1351;DHT22;669;50.206;9.998;2022-10-16T16:42:38;16.70;90.00
1351;DHT22;669;50.206;9.998;2022-10-16T16:45:07;16.70;89.60
1351;DHT22;669;50.206;9.998;2022-10-16T16:47:36;16.50;89.10
1351;DHT22;669;50.206;9.998;2022-10-16T16:50:05;16.40;88.50
1351;DHT22;669;50.206;9.998;2022-10-16T16:52:34;16.40;89.50
1351;DHT22;669;50.206;9.998;2022-10-16T16:55:02;16.30;89.90